sensor_id;sensor_type;location;lat;lon;timestamp;temperature;humidity
15906;DHT22;8051;50.820;4.884;2023-02-15T00:01:32;1.20;99.90
15906;DHT22;8051;50.820;4.884;2023-02-15T00:04:00;1.20;99.90
15906;DHT22;8051;50.820;4.884;2023-02-15T00:06:29;1.10;99.90
15906;DHT22;8051;50.820;4.884;2023-02-15T00:08:56;1.10;99.90
15906;DHT22;8051;50.820;4.884;2023-02-15T00:11:24;1.10;99.90
15906;DHT22;8051;50.820;4.884;2023-02-15T00:14:10;1.10;99.90
15906;DHT22;8051;50.820;4.884;2023-02-15T00:16:39;1.00;99.90
15906;DHT22;8051;50.820;4.884;2023-02-15T00:19:07;1.00;99.90
15906;DHT22;8051;50.820;4.884;2023-02-15T00:21:38;0.90;99.90
15906;DHT22;8051;50.820;4.884;2023-02-15T00:24:08;0.90;99.90
15906;DHT22;8051;50.820;4.884;2023-02-15T00:26:38;0.90;99.90
15906;DHT22;8051;50.820;4.884;2023-02-15T00:29:06;0.90;99.90
15906;DHT22;8051;50.820;4.884;2023-02-15T00:31:34;0.80;99.90
15906;DHT22;8051;50.820;4.884;2023-02-15T00:34:03;0.80;99.90
15906;DHT22;8051;50.820;4.884;2023-02-15T00:36:31;0.80;99.90
15906;DHT22;8051;50.820;4.884;2023-02-15T00:39:00;0.80;99.90
15906;DHT22;8051;50.820;4.884;2023-02-15T00:41:27;0.80;99.90
15906;DHT22;8051;50.820;4.884;2023-02-15T00:43:55;0.80;99.90
15906;DHT22;8051;50.820;4.884;2023-02-15T00:46:22;0.80;99.90
15906;DHT22;8051;50.820;4.884;2023-02-15T00:48:50;0.80;99.90
15906;DHT22;8051;50.820;4.884;2023-02-15T00:51:19;0.80;99.90
15906;DHT22;8051;50.820;4.884;2023-02-15T00:53:47;0.80;99.90
15906;DHT22;8051;50.820;4.884;2023-02-15T00:56:16;0.80;99.90
15906;DHT22;8051;50.820;4.884;2023-02-15T00:58:43;0.80;99.90
15906;DHT22;8051;50.820;4.884;2023-02-15T01:01:15;0.80;99.90
15906;DHT22;8051;50.820;4.884;2023-02-15T01:03:43;0.80;99.90
15906;DHT22;8051;50.820;4.884;2023-02-15T01:06:12;0.80;99.90
15906;DHT22;8051;50.820;4.884;2023-02-15T01:08:40;0.70;99.90
15906;DHT22;8051;50.820;4.884;2023-02-15T01:11:09;0.70;99.90
15906;DHT22;8051;50.820;4.884;2023-02-15T01:13:39;0.70;99.90
15906;DHT22;8051;50.820;4.884;2023-02-15T01:16:07;0.60;99.90
15906;DHT22;8051;50.820;4.884;2023-02-15T01:18:35;0.60;99.90
15906;DHT22;8051;50.820;4.884;2023-02-15T01:21:10;0.60;99.90
15906;DHT22;8051;50.820;4.884;2023-02-15T01:23:37;0.60;99.90
15906;DHT22;8051;50.820;4.884;2023-02-15T01:26:04;0.60;99.90
15906;DHT22;8051;50.820;4.884;2023-02-15T01:28:32;0.50;99.90
15906;DHT22;8051;50.820;4.884;2023-02-15T01:31:04;0.50;99.90
15906;DHT22;8051;50.820;4.884;2023-02-15T01:33:32;0.50;99.90
15906;DHT22;8051;50.820;4.884;2023-02-15T01:36:00;0.50;99.90
15906;DHT22;8051;50.820;4.884;2023-02-15T01:38:27;0.50;99.90
15906;DHT22;8051;50.820;4.884;2023-02-15T01:40:55;0.50;99.90
15906;DHT22;8051;50.820;4.884;2023-02-15T01:43:45;0.50;99.90
15906;DHT22;8051;50.820;4.884;2023-02-15T01:46:16;0.50;99.90
15906;DHT22;8051;50.820;4.884;2023-02-15T01:48:47;0.40;99.90
15906;DHT22;8051;50.820;4.884;2023-02-15T01:51:18;0.40;99.90
15906;DHT22;8051;50.820;4.884;2023-02-15T01:53:50;0.40;99.90
15906;DHT22;8051;50.820;4.884;2023-02-15T01:56:20;0.40;99.90
15906;DHT22;8051;50.820;4.884;2023-02-15T01:58:49;0.40;99.90
15906;DHT22;8051;50.820;4.884;2023-02-15T02:01:19;0.40;99.90
15906;DHT22;8051;50.820;4.884;2023-02-15T02:03:56;0.40;99.90
15906;DHT22;8051;50.820;4.884;2023-02-15T02:06:27;0.30;99.90
15906;DHT22;8051;50.820;4.884;2023-02-15T02:08:55;0.30;99.90
15906;DHT22;8051;50.820;4.884;2023-02-15T02:11:23;0.30;99.90
15906;DHT22;8051;50.820;4.884;2023-02-15T02:13:51;0.30;99.90
15906;DHT22;8051;50.820;4.884;2023-02-15T02:16:25;0.30;99.90
15906;DHT22;8051;50.820;4.884;2023-02-15T02:19:12;0.30;99.90
15906;DHT22;8051;50.820;4.884;2023-02-15T02:22:06;0.30;99.90
15906;DHT22;8051;50.820;4.884;2023-02-15T02:24:55;0.30;99.90
15906;DHT22;8051;50.820;4.884;2023-02-15T02:27:36;0.20;99.90
15906;DHT22;8051;50.820;4.884;2023-02-15T02:33:32;0.10;99.90
15906;DHT22;8051;50.820;4.884;2023-02-15T02:36:15;0.10;99.90
15906;DHT22;8051;50.820;4.884;2023-02-15T02:41:42;0.10;99.90
15906;DHT22;8051;50.820;4.884;2023-02-15T02:44:15;0.00;99.90
15906;DHT22;8051;50.820;4.884;2023-02-15T02:46:50;0.00;99.90
15906;DHT22;8051;50.820;4.884;2023-02-15T02:49:30;-0.10;99.90
15906;DHT22;8051;50.820;4.884;2023-02-15T02:51:59;-0.10;99.90
15906;DHT22;8051;50.820;4.884;2023-02-15T02:54:27;-0.10;99.90
15906;DHT22;8051;50.820;4.884;2023-02-15T02:56:56;-0.10;99.90
15906;DHT22;8051;50.820;4.884;2023-02-15T02:59:29;-0.20;99.90
15906;DHT22;8051;50.820;4.884;2023-02-15T03:02:02;-0.10;99.90
15906;DHT22;8051;50.820;4.884;2023-02-15T03:04:36;-0.10;99.90
15906;DHT22;8051;50.820;4.884;2023-02-15T03:07:06;-0.20;99.90
15906;DHT22;8051;50.820;4.884;2023-02-15T03:09:37;-0.20;99.90
15906;DHT22;8051;50.820;4.884;2023-02-15T03:12:09;-0.20;99.90
15906;DHT22;8051;50.820;4.884;2023-02-15T03:14:39;-0.20;99.90
15906;DHT22;8051;50.820;4.884;2023-02-15T03:17:08;-0.30;99.90
15906;DHT22;8051;50.820;4.884;2023-02-15T03:19:39;-0.30;99.90
15906;DHT22;8051;50.820;4.884;2023-02-15T03:22:10;-0.30;99.90
15906;DHT22;8051;50.820;4.884;2023-02-15T03:24:45;-0.40;99.90
15906;DHT22;8051;50.820;4.884;2023-02-15T03:27:17;-0.40;99.90
15906;DHT22;8051;50.820;4.884;2023-02-15T03:29:47;-0.40;99.90
15906;DHT22;8051;50.820;4.884;2023-02-15T03:32:16;-0.40;99.90
15906;DHT22;8051;50.820;4.884;2023-02-15T03:34:46;-0.50;99.90
15906;DHT22;8051;50.820;4.884;2023-02-15T03:37:17;-0.50;99.90
15906;DHT22;8051;50.820;4.884;2023-02-15T03:39:51;-0.50;99.90
15906;DHT22;8051;50.820;4.884;2023-02-15T03:42:24;-0.50;99.90
15906;DHT22;8051;50.820;4.884;2023-02-15T03:44:58;-0.50;99.90
15906;DHT22;8051;50.820;4.884;2023-02-15T03:47:29;-0.50;99.90
15906;DHT22;8051;50.820;4.884;2023-02-15T03:50:02;-0.60;99.90
15906;DHT22;8051;50.820;4.884;2023-02-15T03:52:51;-0.50;99.90
15906;DHT22;8051;50.820;4.884;2023-02-15T03:55:19;-0.50;99.90
15906;DHT22;8051;50.820;4.884;2023-02-15T03:57:46;-0.60;99.90
15906;DHT22;8051;50.820;4.884;2023-02-15T04:00:34;-0.60;99.90
15906;DHT22;8051;50.820;4.884;2023-02-15T04:03:26;-0.60;99.90
15906;DHT22;8051;50.820;4.884;2023-02-15T04:05:58;-0.60;99.90
15906;DHT22;8051;50.820;4.884;2023-02-15T04:08:27;-0.60;99.90
15906;DHT22;8051;50.820;4.884;2023-02-15T04:11:08;-0.60;99.90
15906;DHT22;8051;50.820;4.884;2023-02-15T04:13:36;-0.60;99.90
15906;DHT22;8051;50.820;4.884;2023-02-15T04:16:03;-0.70;99.90
15906;DHT22;8051;50.820;4.884;2023-02-15T04:18:30;-0.70;99.90
15906;DHT22;8051;50.820;4.884;2023-02-15T04:21:16;-0.70;99.90
15906;DHT22;8051;50.820;4.884;2023-02-15T04:24:01;-0.70;99.90
15906;DHT22;8051;50.820;4.884;2023-02-15T04:26:46;-0.70;99.90
15906;DHT22;8051;50.820;4.884;2023-02-15T04:29:14;-0.70;99.90
15906;DHT22;8051;50.820;4.884;2023-02-15T04:31:42;-0.80;99.90
15906;DHT22;8051;50.820;4.884;2023-02-15T04:34:09;-0.80;99.90
15906;DHT22;8051;50.820;4.884;2023-02-15T04:36:39;-0.80;99.90
15906;DHT22;8051;50.820;4.884;2023-02-15T04:39:07;-0.80;99.90
15906;DHT22;8051;50.820;4.884;2023-02-15T04:41:35;-0.80;99.90
15906;DHT22;8051;50.820;4.884;2023-02-15T04:44:02;-0.90;99.90
15906;DHT22;8051;50.820;4.884;2023-02-15T04:46:30;-0.90;99.90
15906;DHT22;8051;50.820;4.884;2023-02-15T04:48:57;-0.80;99.90
15906;DHT22;8051;50.820;4.884;2023-02-15T04:51:25;-0.90;99.90
15906;DHT22;8051;50.820;4.884;2023-02-15T04:53:54;-0.90;99.90
15906;DHT22;8051;50.820;4.884;2023-02-15T04:56:22;-0.90;99.90
15906;DHT22;8051;50.820;4.884;2023-02-15T04:58:50;-0.90;99.90
15906;DHT22;8051;50.820;4.884;2023-02-15T05:01:17;-0.90;99.90
15906;DHT22;8051;50.820;4.884;2023-02-15T05:03:45;-0.90;99.90
15906;DHT22;8051;50.820;4.884;2023-02-15T05:06:12;-0.90;99.90
15906;DHT22;8051;50.820;4.884;2023-02-15T05:08:40;-0.90;99.90
15906;DHT22;8051;50.820;4.884;2023-02-15T05:11:09;-0.90;99.90
15906;DHT22;8051;50.820;4.884;2023-02-15T05:13:36;-0.90;99.90
15906;DHT22;8051;50.820;4.884;2023-02-15T05:16:04;-1.00;99.90
15906;DHT22;8051;50.820;4.884;2023-02-15T05:18:31;-1.00;99.90
15906;DHT22;8051;50.820;4.884;2023-02-15T05:20:59;-1.00;99.90
15906;DHT22;8051;50.820;4.884;2023-02-15T05:23:27;-0.90;99.90
15906;DHT22;8051;50.820;4.884;2023-02-15T05:25:54;-0.90;99.90
15906;DHT22;8051;50.820;4.884;2023-02-15T05:28:40;-0.90;99.90
15906;DHT22;8051;50.820;4.884;2023-02-15T05:31:10;-1.00;99.90
15906;DHT22;8051;50.820;4.884;2023-02-15T05:33:38;-1.00;99.90
15906;DHT22;8051;50.820;4.884;2023-02-15T05:36:07;-1.00;99.90
15906;DHT22;8051;50.820;4.884;2023-02-15T05:38:34;-1.00;99.90
15906;DHT22;8051;50.820;4.884;2023-02-15T05:41:03;-1.10;99.90
15906;DHT22;8051;50.820;4.884;2023-02-15T05:43:31;-1.10;99.90
15906;DHT22;8051;50.820;4.884;2023-02-15T05:46:01;-1.10;99.90
15906;DHT22;8051;50.820;4.884;2023-02-15T05:48:28;-1.10;99.90
15906;DHT22;8051;50.820;4.884;2023-02-15T05:51:00;-1.10;99.90
15906;DHT22;8051;50.820;4.884;2023-02-15T05:53:28;-1.10;99.90
15906;DHT22;8051;50.820;4.884;2023-02-15T05:55:56;-1.20;99.90
15906;DHT22;8051;50.820;4.884;2023-02-15T05:58:25;-1.20;99.90
15906;DHT22;8051;50.820;4.884;2023-02-15T06:00:53;-1.20;99.90
15906;DHT22;8051;50.820;4.884;2023-02-15T06:03:22;-1.20;99.90
15906;DHT22;8051;50.820;4.884;2023-02-15T06:05:51;-1.20;99.90
15906;DHT22;8051;50.820;4.884;2023-02-15T06:08:19;-1.20;99.90
15906;DHT22;8051;50.820;4.884;2023-02-15T06:10:47;-1.20;99.90
15906;DHT22;8051;50.820;4.884;2023-02-15T06:13:14;-1.20;99.90
15906;DHT22;8051;50.820;4.884;2023-02-15T06:15:42;-1.30;99.90
15906;DHT22;8051;50.820;4.884;2023-02-15T06:18:09;-1.30;99.90
15906;DHT22;8051;50.820;4.884;2023-02-15T06:20:38;-1.30;99.90
15906;DHT22;8051;50.820;4.884;2023-02-15T06:23:06;-1.30;99.90
15906;DHT22;8051;50.820;4.884;2023-02-15T06:25:33;-1.30;99.90
15906;DHT22;8051;50.820;4.884;2023-02-15T06:28:01;-1.30;99.90
15906;DHT22;8051;50.820;4.884;2023-02-15T06:30:29;-1.30;99.90
15906;DHT22;8051;50.820;4.884;2023-02-15T06:32:56;-1.30;99.90
15906;DHT22;8051;50.820;4.884;2023-02-15T06:35:24;-1.30;99.90
15906;DHT22;8051;50.820;4.884;2023-02-15T06:37:53;-1.30;99.90
15906;DHT22;8051;50.820;4.884;2023-02-15T06:40:20;-1.30;99.90
15906;DHT22;8051;50.820;4.884;2023-02-15T06:42:48;-1.30;99.90
15906;DHT22;8051;50.820;4.884;2023-02-15T06:45:15;-1.30;99.90
15906;DHT22;8051;50.820;4.884;2023-02-15T06:47:43;-1.30;99.90
15906;DHT22;8051;50.820;4.884;2023-02-15T06:50:11;-1.30;99.90
15906;DHT22;8051;50.820;4.884;2023-02-15T06:52:38;-1.30;99.90
15906;DHT22;8051;50.820;4.884;2023-02-15T06:55:08;-1.30;99.90
15906;DHT22;8051;50.820;4.884;2023-02-15T06:57:36;-1.30;99.90
15906;DHT22;8051;50.820;4.884;2023-02-15T07:00:04;-1.30;99.90
15906;DHT22;8051;50.820;4.884;2023-02-15T07:02:32;-1.30;99.90
15906;DHT22;8051;50.820;4.884;2023-02-15T07:05:00;-1.20;99.90
15906;DHT22;8051;50.820;4.884;2023-02-15T07:07:28;-1.20;99.90
15906;DHT22;8051;50.820;4.884;2023-02-15T07:09:56;-1.20;99.90
15906;DHT22;8051;50.820;4.884;2023-02-15T07:12:25;-1.10;99.90
15906;DHT22;8051;50.820;4.884;2023-02-15T07:15:13;-1.10;99.90
15906;DHT22;8051;50.820;4.884;2023-02-15T07:17:41;-1.00;99.90
15906;DHT22;8051;50.820;4.884;2023-02-15T07:20:11;-0.90;99.90
15906;DHT22;8051;50.820;4.884;2023-02-15T07:22:39;-0.90;99.90
15906;DHT22;8051;50.820;4.884;2023-02-15T07:25:09;-0.80;99.90
15906;DHT22;8051;50.820;4.884;2023-02-15T07:27:38;-0.70;99.90
15906;DHT22;8051;50.820;4.884;2023-02-15T07:30:07;-0.60;99.90
15906;DHT22;8051;50.820;4.884;2023-02-15T07:32:35;-0.50;99.90
15906;DHT22;8051;50.820;4.884;2023-02-15T07:35:23;-0.50;99.90
15906;DHT22;8051;50.820;4.884;2023-02-15T07:37:50;-0.40;99.90
15906;DHT22;8051;50.820;4.884;2023-02-15T07:40:19;-0.20;99.90
15906;DHT22;8051;50.820;4.884;2023-02-15T07:42:50;-0.10;99.90
15906;DHT22;8051;50.820;4.884;2023-02-15T07:45:20;0.00;99.90
15906;DHT22;8051;50.820;4.884;2023-02-15T07:47:48;0.10;99.90
15906;DHT22;8051;50.820;4.884;2023-02-15T07:50:16;0.20;99.90
15906;DHT22;8051;50.820;4.884;2023-02-15T07:52:43;0.20;99.90
15906;DHT22;8051;50.820;4.884;2023-02-15T07:55:11;0.30;99.90
15906;DHT22;8051;50.820;4.884;2023-02-15T07:57:42;0.40;99.90
15906;DHT22;8051;50.820;4.884;2023-02-15T08:00:13;0.50;99.90
15906;DHT22;8051;50.820;4.884;2023-02-15T08:02:41;0.60;99.90
15906;DHT22;8051;50.820;4.884;2023-02-15T08:05:08;0.70;99.90
15906;DHT22;8051;50.820;4.884;2023-02-15T08:07:36;0.80;99.90
15906;DHT22;8051;50.820;4.884;2023-02-15T08:10:04;0.90;99.90
15906;DHT22;8051;50.820;4.884;2023-02-15T08:12:32;1.00;99.90
15906;DHT22;8051;50.820;4.884;2023-02-15T08:14:59;1.10;99.90
15906;DHT22;8051;50.820;4.884;2023-02-15T08:17:28;1.20;99.90
15906;DHT22;8051;50.820;4.884;2023-02-15T08:19:56;1.30;99.90
15906;DHT22;8051;50.820;4.884;2023-02-15T08:22:23;1.30;99.90
15906;DHT22;8051;50.820;4.884;2023-02-15T08:24:52;1.40;99.90
15906;DHT22;8051;50.820;4.884;2023-02-15T08:27:19;1.60;99.90
15906;DHT22;8051;50.820;4.884;2023-02-15T08:29:52;1.70;99.90
15906;DHT22;8051;50.820;4.884;2023-02-15T08:32:19;1.80;99.90
15906;DHT22;8051;50.820;4.884;2023-02-15T08:34:48;1.90;99.90
15906;DHT22;8051;50.820;4.884;2023-02-15T08:37:16;2.00;99.90
15906;DHT22;8051;50.820;4.884;2023-02-15T08:39:43;2.10;99.90
15906;DHT22;8051;50.820;4.884;2023-02-15T08:42:11;2.30;99.90
15906;DHT22;8051;50.820;4.884;2023-02-15T08:44:39;2.40;99.90
15906;DHT22;8051;50.820;4.884;2023-02-15T08:47:07;2.50;99.90
15906;DHT22;8051;50.820;4.884;2023-02-15T08:49:34;2.70;99.90
15906;DHT22;8051;50.820;4.884;2023-02-15T08:52:03;2.80;99.90
15906;DHT22;8051;50.820;4.884;2023-02-15T08:54:31;2.90;99.90
15906;DHT22;8051;50.820;4.884;2023-02-15T08:56:59;3.00;99.90
15906;DHT22;8051;50.820;4.884;2023-02-15T08:59:26;3.20;99.90
15906;DHT22;8051;50.820;4.884;2023-02-15T09:01:54;3.30;99.90
15906;DHT22;8051;50.820;4.884;2023-02-15T09:04:22;3.40;99.90
15906;DHT22;8051;50.820;4.884;2023-02-15T09:06:50;3.60;99.90
15906;DHT22;8051;50.820;4.884;2023-02-15T09:09:19;3.80;99.90
15906;DHT22;8051;50.820;4.884;2023-02-15T09:11:48;3.90;99.90
15906;DHT22;8051;50.820;4.884;2023-02-15T09:14:19;4.10;99.90
15906;DHT22;8051;50.820;4.884;2023-02-15T09:16:47;4.30;99.90
15906;DHT22;8051;50.820;4.884;2023-02-15T09:19:18;4.40;99.90
15906;DHT22;8051;50.820;4.884;2023-02-15T09:21:45;4.50;99.90
15906;DHT22;8051;50.820;4.884;2023-02-15T09:24:14;4.70;99.90
15906;DHT22;8051;50.820;4.884;2023-02-15T09:26:44;4.80;99.90
15906;DHT22;8051;50.820;4.884;2023-02-15T09:29:13;4.90;99.90
15906;DHT22;8051;50.820;4.884;2023-02-15T09:31:43;4.90;99.90
15906;DHT22;8051;50.820;4.884;2023-02-15T09:34:11;5.00;99.90
15906;DHT22;8051;50.820;4.884;2023-02-15T09:36:39;5.10;99.90
15906;DHT22;8051;50.820;4.884;2023-02-15T09:39:09;5.20;99.90
15906;DHT22;8051;50.820;4.884;2023-02-15T09:45:07;5.50;99.90
15906;DHT22;8051;50.820;4.884;2023-02-15T09:48:00;5.70;99.90
15906;DHT22;8051;50.820;4.884;2023-02-15T09:50:37;5.80;99.90
15906;DHT22;8051;50.820;4.884;2023-02-15T09:53:29;6.00;99.90
15906;DHT22;8051;50.820;4.884;2023-02-15T09:56:04;6.10;99.90
15906;DHT22;8051;50.820;4.884;2023-02-15T09:58:44;6.30;99.90
15906;DHT22;8051;50.820;4.884;2023-02-15T10:01:19;6.50;99.90
15906;DHT22;8051;50.820;4.884;2023-02-15T10:06:48;6.90;99.90
15906;DHT22;8051;50.820;4.884;2023-02-15T12:21:42;11.50;99.90
15906;DHT22;8051;50.820;4.884;2023-02-15T12:24:17;11.40;99.90
15906;DHT22;8051;50.820;4.884;2023-02-15T12:26:56;11.30;99.90
15906;DHT22;8051;50.820;4.884;2023-02-15T12:29:27;11.20;99.90
15906;DHT22;8051;50.820;4.884;2023-02-15T12:31:57;11.30;99.90
15906;DHT22;8051;50.820;4.884;2023-02-15T12:34:28;11.40;99.90
15906;DHT22;8051;50.820;4.884;2023-02-15T12:37:01;11.40;99.90
15906;DHT22;8051;50.820;4.884;2023-02-15T12:39:30;11.50;99.90
15906;DHT22;8051;50.820;4.884;2023-02-15T12:42:00;11.60;99.90
15906;DHT22;8051;50.820;4.884;2023-02-15T12:44:30;11.70;99.90
15906;DHT22;8051;50.820;4.884;2023-02-15T12:47:00;11.90;99.90
15906;DHT22;8051;50.820;4.884;2023-02-15T12:49:28;12.00;99.90
15906;DHT22;8051;50.820;4.884;2023-02-15T13:53:30;12.40;99.90
15906;DHT22;8051;50.820;4.884;2023-02-15T13:56:07;12.40;99.90
15906;DHT22;8051;50.820;4.884;2023-02-15T13:58:57;12.50;99.90
15906;DHT22;8051;50.820;4.884;2023-02-15T14:01:36;12.50;99.90
15906;DHT22;8051;50.820;4.884;2023-02-15T14:04:33;12.60;99.90
15906;DHT22;8051;50.820;4.884;2023-02-15T14:07:19;12.70;99.90
15906;DHT22;8051;50.820;4.884;2023-02-15T14:10:02;12.60;99.90
15906;DHT22;8051;50.820;4.884;2023-02-15T14:12:45;12.60;99.90
15906;DHT22;8051;50.820;4.884;2023-02-15T14:15:28;12.60;99.90
15906;DHT22;8051;50.820;4.884;2023-02-15T14:18:07;12.70;99.90
15906;DHT22;8051;50.820;4.884;2023-02-15T14:20:51;12.70;99.90
15906;DHT22;8051;50.820;4.884;2023-02-15T14:23:33;12.70;99.90
15906;DHT22;8051;50.820;4.884;2023-02-15T14:26:11;12.80;99.90
15906;DHT22;8051;50.820;4.884;2023-02-15T14:28:48;12.70;99.90
15906;DHT22;8051;50.820;4.884;2023-02-15T14:31:22;12.80;99.90
15906;DHT22;8051;50.820;4.884;2023-02-15T14:33:56;12.80;99.90
15906;DHT22;8051;50.820;4.884;2023-02-15T14:36:25;12.80;99.90
15906;DHT22;8051;50.820;4.884;2023-02-15T14:39:03;12.80;99.90
15906;DHT22;8051;50.820;4.884;2023-02-15T14:41:58;12.70;99.90
15906;DHT22;8051;50.820;4.884;2023-02-15T14:44:32;12.80;99.90
15906;DHT22;8051;50.820;4.884;2023-02-15T14:47:07;12.70;99.90
15906;DHT22;8051;50.820;4.884;2023-02-15T14:49:38;12.70;99.90
15906;DHT22;8051;50.820;4.884;2023-02-15T14:52:06;12.60;99.90
15906;DHT22;8051;50.820;4.884;2023-02-15T14:54:56;12.50;99.90
15906;DHT22;8051;50.820;4.884;2023-02-15T14:57:33;12.50;99.90
15906;DHT22;8051;50.820;4.884;2023-02-15T15:02:47;12.50;99.90
15906;DHT22;8051;50.820;4.884;2023-02-15T15:05:18;12.50;99.90
15906;DHT22;8051;50.820;4.884;2023-02-15T15:07:49;12.50;99.90
15906;DHT22;8051;50.820;4.884;2023-02-15T15:10:36;12.50;99.90
15906;DHT22;8051;50.820;4.884;2023-02-15T15:16:29;12.70;99.90
15906;DHT22;8051;50.820;4.884;2023-02-15T15:18:58;12.50;99.90
15906;DHT22;8051;50.820;4.884;2023-02-15T15:21:53;12.50;99.90
15906;DHT22;8051;50.820;4.884;2023-02-15T15:24:46;12.50;99.90
15906;DHT22;8051;50.820;4.884;2023-02-15T15:42:50;12.10;99.90
15906;DHT22;8051;50.820;4.884;2023-02-15T15:45:41;12.00;99.90
15906;DHT22;8051;50.820;4.884;2023-02-15T15:48:30;12.00;99.90
15906;DHT22;8051;50.820;4.884;2023-02-15T15:51:02;11.90;99.90
15906;DHT22;8051;50.820;4.884;2023-02-15T15:53:38;11.80;99.90
15906;DHT22;8051;50.820;4.884;2023-02-15T15:56:13;11.80;99.90
15906;DHT22;8051;50.820;4.884;2023-02-15T15:58:46;11.70;99.90
15906;DHT22;8051;50.820;4.884;2023-02-15T16:01:14;11.70;99.90
15906;DHT22;8051;50.820;4.884;2023-02-15T16:03:49;11.60;99.90
15906;DHT22;8051;50.820;4.884;2023-02-15T16:06:28;11.50;99.90
15906;DHT22;8051;50.820;4.884;2023-02-15T16:08:58;11.40;99.90
15906;DHT22;8051;50.820;4.884;2023-02-15T16:11:36;11.30;99.90
15906;DHT22;8051;50.820;4.884;2023-02-15T16:14:11;11.30;99.90
15906;DHT22;8051;50.820;4.884;2023-02-15T16:16:39;11.20;99.90
15906;DHT22;8051;50.820;4.884;2023-02-15T16:19:20;11.10;99.90
15906;DHT22;8051;50.820;4.884;2023-02-15T16:21:50;11.00;99.90
15906;DHT22;8051;50.820;4.884;2023-02-15T16:24:31;10.90;99.90
15906;DHT22;8051;50.820;4.884;2023-02-15T16:27:22;10.80;99.90
15906;DHT22;8051;50.820;4.884;2023-02-15T16:29:52;10.70;99.90
15906;DHT22;8051;50.820;4.884;2023-02-15T16:32:21;10.60;99.90
15906;DHT22;8051;50.820;4.884;2023-02-15T16:34:52;10.60;99.90
15906;DHT22;8051;50.820;4.884;2023-02-15T16:37:22;10.50;99.90
15906;DHT22;8051;50.820;4.884;2023-02-15T16:39:54;10.40;99.90
15906;DHT22;8051;50.820;4.884;2023-02-15T16:42:22;10.20;99.90
15906;DHT22;8051;50.820;4.884;2023-02-15T16:44:53;10.10;99.90
15906;DHT22;8051;50.820;4.884;2023-02-15T16:47:25;10.00;99.90
15906;DHT22;8051;50.820;4.884;2023-02-15T16:49:56;10.00;99.90
15906;DHT22;8051;50.820;4.884;2023-02-15T16:52:26;9.80;99.90
15906;DHT22;8051;50.820;4.884;2023-02-15T16:54:56;9.70;99.90
15906;DHT22;8051;50.820;4.884;2023-02-15T16:57:27;9.60;99.90
15906;DHT22;8051;50.820;4.884;2023-02-15T16:59:58;9.50;99.90
15906;DHT22;8051;50.820;4.884;2023-02-15T17:02:30;9.40;99.90
15906;DHT22;8051;50.820;4.884;2023-02-15T17:05:16;9.30;99.90
15906;DHT22;8051;50.820;4.884;2023-02-15T17:08:06;9.10;99.90
15906;DHT22;8051;50.820;4.884;2023-02-15T17:10:37;9.10;99.90
15906;DHT22;8051;50.820;4.884;2023-02-15T17:13:10;9.00;99.90
15906;DHT22;8051;50.820;4.884;2023-02-15T17:15:40;8.90;99.90
15906;DHT22;8051;50.820;4.884;2023-02-15T17:18:14;8.90;99.90
15906;DHT22;8051;50.820;4.884;2023-02-15T17:20:44;8.80;99.90
15906;DHT22;8051;50.820;4.884;2023-02-15T17:23:22;8.70;99.90
15906;DHT22;8051;50.820;4.884;2023-02-15T17:25:54;8.60;99.90
15906;DHT22;8051;50.820;4.884;2023-02-15T17:28:25;8.50;99.90
15906;DHT22;8051;50.820;4.884;2023-02-15T17:30:54;8.40;99.90
15906;DHT22;8051;50.820;4.884;2023-02-15T17:33:24;8.30;99.90
15906;DHT22;8051;50.820;4.884;2023-02-15T17:36:06;8.20;99.90
15906;DHT22;8051;50.820;4.884;2023-02-15T17:38:36;8.00;99.90
15906;DHT22;8051;50.820;4.884;2023-02-15T17:41:05;8.00;99.90
15906;DHT22;8051;50.820;4.884;2023-02-15T17:43:35;7.90;99.90
15906;DHT22;8051;50.820;4.884;2023-02-15T17:46:03;7.90;99.90
15906;DHT22;8051;50.820;4.884;2023-02-15T17:48:34;7.80;99.90
15906;DHT22;8051;50.820;4.884;2023-02-15T17:51:03;7.80;99.90
15906;DHT22;8051;50.820;4.884;2023-02-15T17:53:32;7.80;99.90
15906;DHT22;8051;50.820;4.884;2023-02-15T17:56:00;7.90;99.90
15906;DHT22;8051;50.820;4.884;2023-02-15T17:58:37;7.90;99.90
15906;DHT22;8051;50.820;4.884;2023-02-15T18:01:10;7.90;99.90
15906;DHT22;8051;50.820;4.884;2023-02-15T18:03:57;8.00;99.90
15906;DHT22;8051;50.820;4.884;2023-02-15T18:06:42;8.00;99.90
15906;DHT22;8051;50.820;4.884;2023-02-15T18:09:28;8.10;99.90
15906;DHT22;8051;50.820;4.884;2023-02-15T18:12:19;8.10;99.90
15906;DHT22;8051;50.820;4.884;2023-02-15T18:14:49;8.20;99.90
15906;DHT22;8051;50.820;4.884;2023-02-15T18:17:17;8.20;99.90
15906;DHT22;8051;50.820;4.884;2023-02-15T18:19:46;8.10;99.90
15906;DHT22;8051;50.820;4.884;2023-02-15T18:22:15;8.10;99.90
15906;DHT22;8051;50.820;4.884;2023-02-15T18:24:44;8.10;99.90
15906;DHT22;8051;50.820;4.884;2023-02-15T18:27:12;8.10;99.90
15906;DHT22;8051;50.820;4.884;2023-02-15T18:29:40;8.00;99.90
15906;DHT22;8051;50.820;4.884;2023-02-15T18:32:15;8.00;99.90
15906;DHT22;8051;50.820;4.884;2023-02-15T18:34:43;7.90;99.90
15906;DHT22;8051;50.820;4.884;2023-02-15T18:37:16;7.90;99.90
15906;DHT22;8051;50.820;4.884;2023-02-15T18:39:45;7.90;99.90
15906;DHT22;8051;50.820;4.884;2023-02-15T18:42:20;7.80;99.90
15906;DHT22;8051;50.820;4.884;2023-02-15T18:44:48;7.80;99.90
15906;DHT22;8051;50.820;4.884;2023-02-15T18:47:17;7.70;99.90
15906;DHT22;8051;50.820;4.884;2023-02-15T18:49:44;7.70;99.90
15906;DHT22;8051;50.820;4.884;2023-02-15T18:52:14;7.60;99.90
15906;DHT22;8051;50.820;4.884;2023-02-15T18:54:43;7.60;99.90
15906;DHT22;8051;50.820;4.884;2023-02-15T18:57:12;7.60;99.90
15906;DHT22;8051;50.820;4.884;2023-02-15T18:59:41;7.60;99.90
15906;DHT22;8051;50.820;4.884;2023-02-15T19:02:11;7.50;99.90
15906;DHT22;8051;50.820;4.884;2023-02-15T19:04:41;7.50;99.90
15906;DHT22;8051;50.820;4.884;2023-02-15T19:07:15;7.50;99.90
15906;DHT22;8051;50.820;4.884;2023-02-15T19:09:44;7.50;99.90
15906;DHT22;8051;50.820;4.884;2023-02-15T19:12:13;7.50;99.90
15906;DHT22;8051;50.820;4.884;2023-02-15T19:14:41;7.50;99.90
15906;DHT22;8051;50.820;4.884;2023-02-15T19:17:14;7.40;99.90
15906;DHT22;8051;50.820;4.884;2023-02-15T19:19:44;7.30;99.90
15906;DHT22;8051;50.820;4.884;2023-02-15T19:22:13;7.30;99.90
15906;DHT22;8051;50.820;4.884;2023-02-15T19:24:43;7.20;99.90
15906;DHT22;8051;50.820;4.884;2023-02-15T19:27:19;7.20;99.90
15906;DHT22;8051;50.820;4.884;2023-02-15T19:29:47;7.10;99.90
15906;DHT22;8051;50.820;4.884;2023-02-15T19:32:15;7.10;99.90
15906;DHT22;8051;50.820;4.884;2023-02-15T19:34:44;7.00;99.90
15906;DHT22;8051;50.820;4.884;2023-02-15T19:37:22;7.00;99.90
15906;DHT22;8051;50.820;4.884;2023-02-15T19:39:51;6.90;99.90
15906;DHT22;8051;50.820;4.884;2023-02-15T19:42:21;6.90;99.90
15906;DHT22;8051;50.820;4.884;2023-02-15T19:44:49;6.90;99.90
15906;DHT22;8051;50.820;4.884;2023-02-15T19:47:17;6.90;99.90
15906;DHT22;8051;50.820;4.884;2023-02-15T19:49:47;6.90;99.90
15906;DHT22;8051;50.820;4.884;2023-02-15T19:52:17;6.80;99.90
15906;DHT22;8051;50.820;4.884;2023-02-15T19:54:46;6.80;99.90
15906;DHT22;8051;50.820;4.884;2023-02-15T19:57:14;6.80;99.90
15906;DHT22;8051;50.820;4.884;2023-02-15T19:59:42;6.70;99.90
15906;DHT22;8051;50.820;4.884;2023-02-15T20:02:12;6.60;99.90
15906;DHT22;8051;50.820;4.884;2023-02-15T20:04:40;6.60;99.90
15906;DHT22;8051;50.820;4.884;2023-02-15T20:07:16;6.60;99.90
15906;DHT22;8051;50.820;4.884;2023-02-15T20:09:47;6.60;99.90
15906;DHT22;8051;50.820;4.884;2023-02-15T20:12:19;6.50;99.90